Kenner, LA (70065)

2:41 PM CST on March 04, 2015 (GMT -0600)
DeSoto | Change Station
CLOSE
Current Station
Personal Weather Station
Location: Metairie, LA
Elevation: 7 ft
Nearby Weather Stations

Elev 7 ft 29.98 °N, 90.22 °W | Updated 41 seconds ago

Mostly Cloudy
Mostly Cloudy
82.4 °F
Feels Like 87 °F
N
13.0
Wind Variable Wind from SE
Gusts 19.7 mph

Today
High -- | Low -- °F
--% Chance of Precip.
Yesterday
High -- | Low -- °F
Precip. -- in
6:23 AM 6:02 PM
Waxing Gibbous, 99% visible
Pressure 29.93 in
Visibility 10.0 miles
Clouds Scattered Clouds 3700 ft
Mostly Cloudy 4900 ft
Mostly Cloudy 25000 ft
Heat Index 87 °F
Dew Point 71 °F
Humidity 69%
Rainfall 0.07 in
Snow Depth Not available.
UV 0.0 out of 12
Pollen 10.40 out of 12
Air Quality Not available.
Flu Activity Not available.
METAR KMSY 041953Z 19014G23KT 10SM SCT037 BKN049 BKN250 27/19 A2992 RMK AO2 SLP135 T02670189

More Conditions Fewer Conditions

Pressure 29.93 in
Visibility 10.0 miles
Clouds Scattered Clouds 3700 ft
Mostly Cloudy 4900 ft
Mostly Cloudy 25000 ft
Heat Index 87 °F
Dew Point 71 °F
Humidity 69%
Rainfall 0.07 in
Snow Depth Not available.
UV 0.0 out of 12
Pollen 10.40 out of 12
Air Quality Not available.
Flu Activity Not available.
METAR KMSY 041953Z 19014G23KT 10SM SCT037 BKN049 BKN250 27/19 A2992 RMK AO2 SLP135 T02670189

More Conditions Fewer Conditions

10-Day Weather Forecast

Almanac

Astronomy

Mar. 04, 2015 Rise Set
Actual Time
Civil Twilight
Nautical Twilight
Astronomical Twilight
Moon
Length of Visible Light
Length of Day
Tomorrow will be .
, % of the Moon is Illuminated

Today's Extremes

State Highs State Lows

Community

WunderPhotos

Upload Photos

1,802,578 photos uploaded!

WunderBlogs® & News

Nearby

Air Quality

  Air Quality AQ Index Pollutant
Not available.

Snow Depth

Station Depth Elevation

Earthquake Activity

City Distance Mag. Time & Date
Minimum magnitude displayed is 2.5.

Coastal Water Temperatures

Place Temperature

Nearby Weather Stations